Weather at Sault Ste Marie Airport

Public forecast

Using degrees Celsius for public forecast. Weather courtesy of forecast.io.

Current aviation weather report (METAR) for Sault Ste Marie Airport

Retrieved 2020/11/29 16:00 UTC (12 minutes ago):

CYAM 291600Z 08002KT 8SM FEW007 SCT019 BKN200 03/02 A2978 RMK CF1SC4CI3 CF TR SLP096

Aviation forecast (TAF) for Sault Ste Marie Airport

Retrieved 2020/11/29 14:51 UTC (1 hour ago):

TAF TAF CYAM 291349Z 2914/3002 VRB03KT P6SM FEW007 TEMPO 2914/2917 4SM BR BKN007 FM291700 22007KT P6SM BKN015 TEMPO 2917/3002 BKN025 BECMG 2918/2920 30010KT RMK NXT FCST BY 292000Z